Latest Coastal Weather Observations for Stenhouse Bay

IDS60701

Issued at 8:05 pm CST Thursday 24 July 2014 (issued every 10 minutes, with the page automatically refreshed every 10 minutes)

About coastal observations | Map of coastal stations | Coastal observations for SA | Marine services | Other Formats
Station Details ID: 022049 Name: STENHOUSE BAY Lat: -35.28 Lon: 136.94 Height: 42.0 m
Data from the previous 72 hours. | See also: Recent months at Stenhouse Bay
Date/Time
CST
Temp

°C
Wind Pressure Rain
since 9am
mm
Weather Cloud Vis
km
Sea
Height
m
Swell
Dir
 
Speed
knots
Gust
knots
hPa Trend Height
m
Period
s
Dir
24/08:00pm 12.1 W 8 10 1010.9 - 0.6 - - - - - - -
24/07:30pm 12.9 W 8 11 1010.6 - 0.2 - - - - - - -
24/07:00pm 12.7 W 8 10 1010.1 - 0.2 - - - - - - -
24/06:30pm 12.7 W 8 10 1009.7 - 0.2 - - - - - - -
24/06:00pm 12.8 W 9 12 1009.2 - 0.2 - - - - - - -
24/05:30pm 13.2 W 9 12 1008.7 - 0.2 - - - - - - -
24/05:00pm 14.0 W 10 16 1008.3 - 0.2 - - - - - - -
24/04:30pm 14.1 W 9 11 1008.0 - 0.2 - - - - - - -
24/04:00pm 14.1 W 9 12 1007.5 - 0.2 - - - - - - -
24/03:30pm 14.5 W 6 10 1007.2 - 0.2 - - - - - - -
24/03:00pm 14.6 W 11 15 1006.9 - 0.0 - - - - - - -
24/02:30pm 14.7 WNW 13 19 1006.7 - 0.0 - - - - - - -
24/02:00pm 15.9 W 12 19 1006.3 - 0.0 - - - - - - -
24/01:30pm 16.0 W 15 20 1006.3 - 0.0 - - - - - - -
24/01:00pm 16.3 W 14 20 1006.1 - 0.0 - - - - - - -
24/12:30pm 15.7 W 12 18 1006.3 - 0.0 - - - - - - -
24/12:00pm 15.2 W 12 18 1006.7 - 0.0 - - - - - - -
24/11:30am 15.1 W 13 17 1006.9 - 0.0 - - - - - - -
24/11:00am 15.7 W 12 19 1006.9 - 0.0 - - - - - - -
24/10:30am 14.9 WNW 11 18 1006.8 - 0.0 - - - - - - -
24/10:00am 14.7 WNW 11 16 1006.5 - 0.0 - - - - - - -
24/09:30am 14.1 W 8 11 1006.3 - 0.0 - - - - - - -
24/09:00am 13.0 W 7 11 1005.8 - 6.4 - - - - - - -
24/08:30am 12.6 W 8 14 1005.5 - 6.4 - - - - - - -
24/08:00am 11.5 W 8 10 1005.0 - 6.4 - - - - - - -
24/07:30am 10.6 W 7 10 1004.7 - 6.4 - - - - - - -
24/07:00am 10.6 W 8 11 1004.1 - 6.2 - - - - - - -
24/06:30am 10.6 W 8 10 1003.9 - 6.2 - - - - - - -
24/06:00am 10.4 W 7 11 1003.5 - 6.2 - - - - - - -
24/05:30am 10.0 W 8 10 1003.1 - 6.2 - - - - - - -
24/05:00am 10.1 W 9 11 1002.9 - 6.2 - - - - - - -
24/04:30am 9.5 WNW 7 8 1002.5 - 6.2 - - - - - - -
24/04:00am 9.7 NW 3 3 1002.3 - 6.2 - - - - - - -
24/03:30am 10.1 N 4 5 1002.1 - 6.2 - - - - - - -
24/03:00am 10.7 NE 6 7 1002.3 - 6.2 Recent precip. - - - - - -
24/02:30am 10.6 ENE 10 14 1002.5 - 6.0 - - - - - - -
24/02:00am 10.4 ENE 14 20 1002.7 - 5.8 - - - - - - -
24/01:30am 10.3 NE 16 19 1003.0 - 5.6 - - - - - - -
24/01:00am 10.2 NE 14 19 1003.7 - 5.6 - - - - - - -
24/12:30am 10.4 NE 16 22 1004.1 - 5.6 - - - - - - -
24/12:00am 10.5 NE 18 24 1004.5 - 5.6 Recent precip. - - - - - -
 
Date/Time
CST
Temp

°C
Wind Pressure Rain
since 9am
mm
Weather Cloud Vis
km
Sea
Height
m
Swell
Dir
 
Speed
knots
Gust
knots
hPa Trend Height
m
Period
s
Dir
23/11:30pm 10.5 NE 19 25 1005.2 - 5.6 - - - - - - -
23/11:00pm 10.5 NE 20 24 1005.7 - 5.4 - - - - - - -
23/10:30pm 10.3 NNE 14 19 1006.4 - 5.2 - - - - - - -
23/10:00pm 10.3 NNE 12 16 1006.8 - 5.2 - - - - - - -
23/09:30pm 10.6 NE 14 21 1007.1 - 5.0 - - - - - - -
23/09:00pm 10.6 NE 12 17 1007.6 - 5.0 Rain - - - - - -
23/08:30pm 11.0 NE 16 22 1007.8 - 3.6 - - - - - - -
23/08:00pm 10.9 NNE 15 21 1007.7 - 3.4 - - - - - - -
23/07:30pm 10.9 NNE 17 23 1007.9 - 3.4 - - - - - - -
23/07:00pm 11.0 NNE 13 20 1008.1 - 2.8 - - - - - - -
23/06:30pm 11.0 NNE 12 18 1008.1 - 2.6 - - - - - - -
23/06:00pm 11.4 NNE 11 15 1007.9 - 2.4 - - - - - - -
23/05:30pm 11.4 NNE 14 19 1008.0 - 2.4 - - - - - - -
23/05:00pm 11.6 NE 15 22 1008.1 - 2.4 - - - - - - -
23/04:30pm 11.7 NE 16 21 1008.2 - 2.4 - - - - - - -
23/04:00pm 11.9 NE 18 26 1008.3 - 2.2 - - - - - - -
23/03:30pm 11.8 ENE 20 26 1008.2 - 2.2 - - - - - - -
23/03:00pm 11.6 ENE 22 30 1008.4 - 2.2 Rain - - - - - -
23/02:30pm 12.1 ENE 20 26 1009.1 - 2.0 - - - - - - -
23/02:00pm 12.2 ENE 18 26 1009.7 - 2.0 - - - - - - -
23/01:30pm 12.0 ENE 17 22 1010.1 - 2.0 - - - - - - -
23/01:00pm 11.8 ENE 14 21 1011.1 - 2.0 - - - - - - -
23/12:30pm 11.4 NE 12 15 1012.3 - 2.0 - - - - - - -
23/12:00pm 11.5 NE 14 19 1013.5 - 1.8 Rain - - - - - -
23/11:30am 11.2 N 12 16 1014.5 - 1.2 - - - - - - -
23/11:00am 11.3 N 15 21 1014.8 - 0.4 - - - - - - -
23/10:30am 12.5 N 13 17 1015.2 - 0.0 - - - - - - -
23/10:00am 13.1 N 11 15 1015.6 - 0.0 - - - - - - -
23/09:30am 13.2 N 13 16 1015.9 - 0.0 - - - - - - -
23/09:00am 12.9 N 11 14 1015.5 - 0.0 - - - - - - -
23/08:30am 12.5 N 9 13 1015.5 - 0.0 - - - - - - -
23/08:00am 12.1 N 9 12 1015.5 - 0.0 - - - - - - -
23/07:30am 11.9 N 9 12 1015.6 - 0.0 - - - - - - -
23/07:00am 12.1 N 6 9 1015.5 - 0.0 - - - - - - -
23/06:30am 12.5 NE 9 13 1015.5 - 0.0 - - - - - - -
23/06:00am 11.8 NNE 7 10 1015.7 - 0.0 - - - - - - -
23/05:30am 11.1 NNE 7 8 1016.1 - 0.0 - - - - - - -
23/05:00am 11.3 NNE 6 8 1016.2 - 0.0 - - - - - - -
23/04:30am 11.3 NNE 7 8 1016.0 - 0.0 - - - - - - -
23/04:00am 11.7 NE 7 9 1016.3 - 0.0 - - - - - - -
23/03:30am 11.9 NE 6 8 1016.8 - 0.0 - - - - - - -
23/03:00am 11.9 NNE 7 9 1016.9 - 0.0 - - - - - - -
23/02:30am 11.8 NNE 7 9 1017.2 - 0.0 - - - - - - -
23/02:00am 11.4 NNE 7 9 1017.6 - 0.0 - - - - - - -
23/01:30am 11.5 NNE 8 11 1017.7 - 0.0 - - - - - - -
23/01:00am 12.2 NE 8 11 1017.8 - 0.0 - - - - - - -
23/12:30am 12.0 NE 8 11 1018.1 - 0.0 - - - - - - -
23/12:00am 12.0 NE 8 11 1018.7 - 0.0 - - - - - - -
 
Date/Time
CST
Temp

°C
Wind Pressure Rain
since 9am
mm
Weather Cloud Vis
km
Sea
Height
m
Swell
Dir
 
Speed
knots
Gust
knots
hPa Trend Height
m
Period
s
Dir
22/11:30pm 12.3 NE 9 12 1019.1 - 0.0 - - - - - - -
22/11:00pm 12.0 NE 9 11 1019.5 - 0.0 - - - - - - -
22/10:30pm 11.8 ENE 9 12 1019.6 - 0.0 - - - - - - -
22/10:00pm 11.9 ENE 11 15 1019.5 - 0.0 - - - - - - -
22/09:30pm 12.1 ENE 9 12 1019.7 - 0.0 - - - - - - -
22/09:00pm 12.2 NE 6 8 1019.9 - 0.0 - - - - - - -
22/08:30pm 11.3 NE 5 7 1020.2 - 0.0 - - - - - - -
22/08:00pm 12.0 NE 7 10 1020.0 - 0.0 - - - - - - -
22/07:30pm 12.2 ENE 7 10 1020.3 - 0.0 - - - - - - -
22/07:00pm 12.4 ENE 7 10 1020.3 - 0.0 - - - - - - -
22/06:30pm 12.6 ENE 8 10 1020.3 - 0.0 - - - - - - -
22/06:00pm 12.8 ENE 9 11 1020.2 - 0.0 - - - - - - -
22/05:30pm 13.0 ENE 8 11 1020.1 - 0.0 - - - - - - -
22/05:00pm 13.5 E 9 13 1020.2 - 0.0 - - - - - - -
22/04:30pm 14.2 E 9 14 1019.9 - 0.0 - - - - - - -
22/04:00pm 14.7 E 9 12 1019.5 - 0.0 - - - - - - -
22/03:30pm 15.2 E 8 11 1019.9 - 0.0 - - - - - - -
22/03:00pm 15.4 E 8 10 1020.1 - 0.0 - - - - - - -
22/02:30pm 15.7 E 8 10 1020.4 - 0.0 - - - - - - -
22/02:00pm 15.8 ESE 7 9 1020.6 - 0.0 - - - - - - -
22/01:30pm 15.7 E 7 8 1020.9 - 0.0 - - - - - - -
22/01:00pm 15.7 E 7 9 1021.4 - 0.0 - - - - - - -
22/12:30pm 15.8 E 7 9 1021.8 - 0.0 - - - - - - -
22/12:00pm 15.5 E 5 6 1022.3 - 0.0 - - - - - - -
22/11:30am 15.3 E 4 5 1022.8 - 0.0 - - - - - - -
22/11:00am 15.4 ENE 4 5 1023.0 - 0.0 - - - - - - -
22/10:30am 15.7 NNE 5 7 1023.4 - 0.0 - - - - - - -
22/10:00am 14.9 N 4 6 1023.5 - 0.0 - - - - - - -
22/09:30am 13.4 NE 4 6 1023.2 - 0.0 - - - - - - -
22/09:00am 12.8 NE 3 4 1023.1 - 0.0 - - - - - - -
22/08:30am 12.3 NE 4 5 1022.9 - 0.0 - - - - - - -
22/08:00am 9.8 ENE 3 5 1022.6 - 0.0 - - - - - - -
22/07:30am 9.1 NE 3 4 1022.5 - 0.0 - - - - - - -
22/07:00am 8.3 N 3 4 1022.5 - 0.0 - - - - - - -
22/06:30am 7.8 N 3 5 1022.2 - 0.0 - - - - - - -
22/06:00am 7.4 N 4 5 1022.1 - 0.0 - - - - - - -
22/05:30am 7.6 N 3 4 1021.9 - 0.0 - - - - - - -
22/05:00am 7.8 N 4 6 1022.0 - 0.0 - - - - - - -
22/04:30am 8.1 N 4 5 1021.9 - 0.0 - - - - - - -
22/04:00am 8.3 N 4 5 1021.9 - 0.0 - - - - - - -
22/03:30am 8.7 NNE 4 6 1021.8 - 0.0 - - - - - - -
22/03:00am 8.3 NNE 5 6 1021.8 - 0.0 - - - - - - -
22/02:30am 8.4 N 4 6 1021.9 - 0.0 - - - - - - -
22/02:00am 8.8 N 5 7 1021.8 - 0.0 - - - - - - -
22/01:30am 8.7 N 4 6 1021.9 - 0.0 - - - - - - -
22/01:00am 8.3 N 5 7 1022.0 - 0.0 - - - - - - -
22/12:30am 9.1 NNE 4 6 1022.2 - 0.0 - - - - - - -
22/12:00am 9.1 NNE 5 6 1022.3 - 0.0 - - - - - - -
 
Date/Time
CST
Temp

°C
Wind Pressure Rain
since 9am
mm
Weather Cloud Vis
km
Sea
Height
m
Swell
Dir
 
Speed
knots
Gust
knots
hPa Trend Height
m
Period
s
Dir
21/11:30pm 9.3 NNE 5 6 1022.2 - 0.0 - - - - - - -
21/11:00pm 9.3 NE 4 6 1022.2 - 0.0 - - - - - - -
21/10:30pm 8.8 NNE 2 3 1022.2 - 0.0 - - - - - - -
21/10:00pm 8.3 NNE 3 4 1022.2 - 0.0 - - - - - - -
21/09:30pm 8.8 N 3 4 1022.1 - 0.0 - - - - - - -
21/09:00pm 9.2 N 3 4 1022.0 - 0.0 - - - - - - -
21/08:30pm 9.6 N 2 3 1021.8 - 0.0 - - - - - - -

Other Formats:

Comma delimited format used in spreadsheet applications
http://www.bom.gov.au/fwo/IDS60701/IDS60701.95806.axf

JavaScript Object Notation format (JSON) in row-major order
http://www.bom.gov.au/fwo/IDS60701/IDS60701.95806.json